createdAt,value
2023-03-22T00:01:20.396Z,17.73
2023-03-22T00:03:48.751Z,19.02
2023-03-22T00:06:16.729Z,21.10
2023-03-22T00:08:44.359Z,24.25
2023-03-22T00:11:13.015Z,18.88
2023-03-22T00:13:45.889Z,19.35
2023-03-22T00:16:14.204Z,18.33
2023-03-22T00:18:41.304Z,19.60
2023-03-22T00:21:18.673Z,17.05
2023-03-22T00:23:45.708Z,18.92
2023-03-22T00:26:13.963Z,18.88
2023-03-22T00:28:41.642Z,22.02
2023-03-22T00:31:09.037Z,22.63
2023-03-22T00:33:36.853Z,19.48
2023-03-22T00:36:09.562Z,19.05
2023-03-22T00:38:43.682Z,20.45
2023-03-22T00:41:16.866Z,20.20
2023-03-22T00:43:45.619Z,17.23
2023-03-22T00:46:13.950Z,16.55
2023-03-22T00:48:41.745Z,19.38
2023-03-22T00:51:09.846Z,16.20
2023-03-22T00:53:41.106Z,17.77
2023-03-22T00:56:09.966Z,14.98
2023-03-22T00:58:48.009Z,19.90
2023-03-22T01:01:15.425Z,14.05
2023-03-22T01:03:43.625Z,18.80
2023-03-22T01:06:14.570Z,19.75
2023-03-22T01:08:42.000Z,22.30
2023-03-22T01:11:09.920Z,17.30
2023-03-22T01:13:38.232Z,19.48
2023-03-22T01:16:06.816Z,20.85
2023-03-22T01:18:35.093Z,17.40
2023-03-22T01:21:02.534Z,17.58
2023-03-22T01:23:29.891Z,18.83
2023-03-22T01:25:57.224Z,24.90
2023-03-22T01:28:26.509Z,14.88
2023-03-22T01:30:54.714Z,19.27
2023-03-22T01:33:22.334Z,20.05
2023-03-22T01:35:49.988Z,15.57
2023-03-22T01:38:17.313Z,16.55
2023-03-22T01:40:53.317Z,17.48
2023-03-22T01:43:20.976Z,17.98
2023-03-22T01:45:50.397Z,20.27
2023-03-22T01:48:24.743Z,23.25
2023-03-22T01:51:13.301Z,18.02
2023-03-22T01:54:01.120Z,21.60
2023-03-22T01:56:32.725Z,21.00
2023-03-22T01:59:01.110Z,18.60
2023-03-22T02:01:38.355Z,18.33
2023-03-22T02:04:20.179Z,18.67
2023-03-22T02:06:48.288Z,20.80
2023-03-22T02:09:21.990Z,19.65
2023-03-22T02:11:59.496Z,18.05
2023-03-22T02:14:49.895Z,14.77
2023-03-22T02:18:11.500Z,16.20
2023-03-22T02:21:12.627Z,15.50
2023-03-22T02:24:07.010Z,20.67
2023-03-22T02:27:06.646Z,21.92
2023-03-22T02:29:48.692Z,18.33
2023-03-22T02:32:21.693Z,17.38
2023-03-22T02:35:19.845Z,19.60
2023-03-22T02:38:14.911Z,18.55
2023-03-22T02:41:13.416Z,19.52
2023-03-22T02:43:54.147Z,21.30
2023-03-22T02:46:59.385Z,17.38
2023-03-22T02:49:45.994Z,17.48
2023-03-22T02:52:24.010Z,16.50
2023-03-22T02:55:10.022Z,20.77
2023-03-22T02:57:55.276Z,17.05
2023-03-22T03:00:23.774Z,16.98
2023-03-22T03:02:58.105Z,18.38
2023-03-22T03:05:27.039Z,19.73
2023-03-22T03:07:59.466Z,17.95
2023-03-22T03:10:28.378Z,16.83
2023-03-22T03:12:55.370Z,22.58
2023-03-22T03:15:23.781Z,14.75
2023-03-22T03:18:11.374Z,16.83
2023-03-22T03:20:56.354Z,20.65
2023-03-22T03:23:33.357Z,20.48
2023-03-22T03:26:37.710Z,19.70
2023-03-22T03:29:08.388Z,18.58
2023-03-22T03:32:07.916Z,14.98
2023-03-22T03:34:49.469Z,18.33
2023-03-22T03:37:21.996Z,16.70
2023-03-22T03:39:56.961Z,19.08
2023-03-22T03:42:27.414Z,18.20
2023-03-22T03:47:24.374Z,16.98
2023-03-22T03:49:51.473Z,17.98
2023-03-22T03:52:19.103Z,15.95
2023-03-22T03:54:46.354Z,17.67
2023-03-22T03:57:18.125Z,17.73
2023-03-22T03:59:45.338Z,19.35
2023-03-22T04:02:24.035Z,18.13
2023-03-22T04:04:53.021Z,16.48
2023-03-22T04:07:20.793Z,20.60
2023-03-22T04:09:47.886Z,17.52
2023-03-22T04:12:20.640Z,18.23
2023-03-22T04:15:07.982Z,15.93
2023-03-22T04:17:35.015Z,18.48
2023-03-22T04:20:05.853Z,19.13
2023-03-22T04:22:34.622Z,22.08
2023-03-22T04:25:02.315Z,17.83
2023-03-22T04:27:29.559Z,18.17
2023-03-22T04:30:04.933Z,16.40
2023-03-22T04:32:50.461Z,17.92
2023-03-22T04:35:22.515Z,20.50
2023-03-22T04:37:49.689Z,15.80
2023-03-22T04:40:20.767Z,15.23
2023-03-22T04:43:02.987Z,18.10
2023-03-22T04:45:58.329Z,22.33
2023-03-22T04:48:32.561Z,18.05
2023-03-22T04:51:04.239Z,17.08
2023-03-22T04:53:40.804Z,18.60
2023-03-22T04:56:14.007Z,18.48
2023-03-22T04:58:43.813Z,15.35
2023-03-22T05:01:12.893Z,17.85
2023-03-22T05:03:45.483Z,14.75
2023-03-22T05:06:12.968Z,14.68
2023-03-22T05:08:48.670Z,19.65
2023-03-22T05:11:19.427Z,18.55
2023-03-22T05:13:57.937Z,17.00
2023-03-22T05:16:26.900Z,26.05
2023-03-22T05:18:54.486Z,18.08
2023-03-22T05:21:28.335Z,19.95
2023-03-22T05:23:58.699Z,17.50
2023-03-22T05:26:26.889Z,21.83
2023-03-22T05:28:55.802Z,22.73
2023-03-22T05:31:41.421Z,14.57
2023-03-22T05:34:09.686Z,21.80
2023-03-22T05:36:38.461Z,19.38
2023-03-22T05:39:25.427Z,19.60
2023-03-22T05:41:52.652Z,23.00
2023-03-22T05:44:19.752Z,20.55
2023-03-22T05:47:06.989Z,19.40
2023-03-22T05:49:36.836Z,22.37
2023-03-22T05:52:06.044Z,22.13
2023-03-22T05:54:57.265Z,19.17
2023-03-22T05:57:24.876Z,21.83
2023-03-22T05:59:53.952Z,21.65
2023-03-22T06:02:26.400Z,20.50
2023-03-22T06:04:53.321Z,21.48
2023-03-22T06:07:21.340Z,17.75
2023-03-22T06:09:53.137Z,18.20
2023-03-22T06:12:27.169Z,23.30
2023-03-22T06:15:12.163Z,28.00
2023-03-22T06:17:48.731Z,20.73
2023-03-22T06:20:20.986Z,21.48
2023-03-22T06:22:53.802Z,24.23
2023-03-22T06:25:20.800Z,23.77
2023-03-22T06:27:49.042Z,19.17
2023-03-22T06:30:16.336Z,22.85
2023-03-22T06:33:05.266Z,20.42
2023-03-22T06:35:36.169Z,20.83
2023-03-22T06:38:04.868Z,20.35
2023-03-22T06:40:32.568Z,22.67
2023-03-22T06:43:03.896Z,31.60
2023-03-22T06:45:33.594Z,20.27
2023-03-22T06:48:02.402Z,20.58
2023-03-22T06:50:44.830Z,20.27
2023-03-22T06:53:14.965Z,22.10
2023-03-22T06:55:41.987Z,19.48
2023-03-22T06:58:16.960Z,18.83
2023-03-22T07:00:44.300Z,24.17
2023-03-22T07:03:11.430Z,20.77
2023-03-22T07:05:47.926Z,21.02
2023-03-22T07:08:16.077Z,20.80
2023-03-22T07:10:51.766Z,19.42
2023-03-22T07:13:22.210Z,18.65
2023-03-22T07:15:58.795Z,23.75
2023-03-22T07:18:34.763Z,24.20
2023-03-22T07:21:02.588Z,23.10
2023-03-22T07:23:29.789Z,19.58
2023-03-22T07:26:02.867Z,21.50
2023-03-22T07:28:33.754Z,19.42
2023-03-22T07:31:11.679Z,19.20
2023-03-22T07:33:57.114Z,19.58
2023-03-22T07:36:27.026Z,22.20
2023-03-22T07:38:55.159Z,18.52
2023-03-22T07:41:30.638Z,17.90
2023-03-22T07:44:18.329Z,15.38
2023-03-22T07:47:01.650Z,17.35
2023-03-22T07:49:36.998Z,15.48
2023-03-22T07:52:08.630Z,12.90
2023-03-22T07:54:36.143Z,11.85
2023-03-22T07:57:06.916Z,12.93
2023-03-22T07:59:40.084Z,14.07
2023-03-22T08:02:11.117Z,14.65
2023-03-22T08:04:44.062Z,9.90
2023-03-22T08:07:18.565Z,4.38
2023-03-22T08:09:47.699Z,14.98
2023-03-22T08:12:15.387Z,13.43
2023-03-22T08:14:43.676Z,7.05
2023-03-22T08:17:18.698Z,8.80
2023-03-22T08:19:46.403Z,9.20
2023-03-22T08:22:19.184Z,10.88
2023-03-22T08:25:05.384Z,10.05
2023-03-22T08:27:37.472Z,11.27
2023-03-22T08:30:05.911Z,8.45
2023-03-22T08:32:34.453Z,7.88
2023-03-22T08:35:02.045Z,7.22
2023-03-22T08:37:28.938Z,6.22
2023-03-22T08:39:56.294Z,7.18
2023-03-22T08:42:31.804Z,8.60
2023-03-22T08:44:58.665Z,7.68
2023-03-22T08:47:28.363Z,8.20
2023-03-22T08:49:59.647Z,8.43
2023-03-22T08:52:46.604Z,13.68
2023-03-22T08:55:23.283Z,8.30
2023-03-22T08:58:10.211Z,8.07
2023-03-22T09:00:57.436Z,9.98
2023-03-22T09:03:30.532Z,8.98
2023-03-22T09:05:58.747Z,7.25
2023-03-22T09:08:29.332Z,7.55
2023-03-22T09:11:04.337Z,8.77
2023-03-22T09:13:31.498Z,5.57
2023-03-22T09:16:01.312Z,10.93
2023-03-22T09:23:51.787Z,9.20
2023-03-22T09:26:24.254Z,7.35
2023-03-22T09:28:52.541Z,5.03
2023-03-22T09:31:20.823Z,4.10
2023-03-22T09:33:55.389Z,7.60
2023-03-22T09:36:22.228Z,5.40
2023-03-22T09:38:50.118Z,8.20
2023-03-22T09:41:48.577Z,6.80
2023-03-22T09:44:22.804Z,10.00
2023-03-22T09:46:55.070Z,5.68
2023-03-22T09:49:29.141Z,3.60
2023-03-22T09:51:56.170Z,4.40
2023-03-22T09:54:38.871Z,7.63
2023-03-22T09:57:20.963Z,5.88
2023-03-22T10:00:00.511Z,12.32
2023-03-22T10:02:45.491Z,4.68
2023-03-22T10:05:29.260Z,6.18
2023-03-22T10:08:14.490Z,9.70
2023-03-22T10:10:41.997Z,8.10
2023-03-22T10:13:20.661Z,6.13
2023-03-22T10:15:52.282Z,4.07
2023-03-22T10:18:30.254Z,4.47
2023-03-22T10:21:07.164Z,4.03
2023-03-22T10:23:53.960Z,8.35
2023-03-22T10:26:24.924Z,11.77
2023-03-22T10:29:04.059Z,3.72
2023-03-22T10:31:32.107Z,5.30
2023-03-22T10:34:14.657Z,5.43
2023-03-22T10:36:43.619Z,4.47
2023-03-22T10:39:19.269Z,5.30
2023-03-22T10:41:47.459Z,5.50
2023-03-22T10:44:19.242Z,4.63
2023-03-22T10:46:48.779Z,6.07
2023-03-22T10:49:27.169Z,6.00
2023-03-22T10:51:58.362Z,5.75
2023-03-22T10:54:27.003Z,3.35
2023-03-22T10:56:54.008Z,8.32
2023-03-22T10:59:50.056Z,6.57
2023-03-22T11:02:26.908Z,6.60
2023-03-22T11:05:02.603Z,2.90
2023-03-22T11:07:33.918Z,8.30
2023-03-22T11:10:09.986Z,5.60
2023-03-22T11:12:40.951Z,7.53
2023-03-22T11:15:25.226Z,4.07
2023-03-22T11:17:54.891Z,9.13
2023-03-22T11:20:23.046Z,4.82
2023-03-22T11:22:51.170Z,3.30
2023-03-22T11:25:26.830Z,11.18
2023-03-22T11:27:57.249Z,4.70
2023-03-22T11:30:29.216Z,4.15
2023-03-22T11:33:08.701Z,7.30
2023-03-22T11:35:38.738Z,4.53
2023-03-22T11:38:05.712Z,3.63
2023-03-22T11:40:37.343Z,4.47
2023-03-22T11:43:21.554Z,6.10
2023-03-22T11:45:53.414Z,4.28
2023-03-22T11:48:27.361Z,5.50
2023-03-22T11:51:03.430Z,5.68
2023-03-22T11:53:35.450Z,9.20
2023-03-22T11:56:07.370Z,8.05
2023-03-22T11:58:44.705Z,6.63
2023-03-22T12:01:32.907Z,7.88
2023-03-22T12:04:01.911Z,16.52
2023-03-22T12:06:33.876Z,6.68
2023-03-22T12:09:22.175Z,4.80
2023-03-22T12:11:53.092Z,11.52
2023-03-22T12:14:28.359Z,6.25
2023-03-22T12:17:10.843Z,6.75
2023-03-22T12:19:58.980Z,5.95
2023-03-22T12:22:32.509Z,9.65
2023-03-22T12:25:01.843Z,7.95
2023-03-22T12:27:36.589Z,6.85
2023-03-22T12:30:11.398Z,7.53
2023-03-22T12:32:42.941Z,7.10
2023-03-22T12:35:21.400Z,5.70
2023-03-22T12:37:52.222Z,5.88
2023-03-22T12:40:49.941Z,6.53
2023-03-22T12:43:34.115Z,7.22
2023-03-22T12:46:03.939Z,7.35
2023-03-22T12:48:46.641Z,7.30
2023-03-22T12:51:15.025Z,6.22
2023-03-22T12:53:51.757Z,5.85
2023-03-22T12:56:25.709Z,6.97
2023-03-22T12:59:01.357Z,6.20
2023-03-22T13:01:48.638Z,4.40
2023-03-22T13:04:36.672Z,12.80
2023-03-22T13:07:37.774Z,7.22
2023-03-22T13:10:29.678Z,5.60
2023-03-22T13:13:37.746Z,5.75
2023-03-22T13:16:11.100Z,4.10
2023-03-22T13:18:38.337Z,2.28
2023-03-22T13:21:14.469Z,5.80
2023-03-22T13:24:15.379Z,3.00
2023-03-22T13:26:47.201Z,4.65
2023-03-22T13:29:24.543Z,4.20
2023-03-22T13:31:51.954Z,8.70
2023-03-22T13:34:31.468Z,7.68
2023-03-22T13:36:59.451Z,4.77
2023-03-22T13:39:34.573Z,3.83
2023-03-22T13:42:38.092Z,5.57
2023-03-22T13:45:09.014Z,6.57
2023-03-22T13:47:37.452Z,2.80
2023-03-22T13:50:11.737Z,3.42
2023-03-22T13:52:53.409Z,7.18
2023-03-22T13:55:51.909Z,1.63
2023-03-22T13:58:54.090Z,3.28
2023-03-22T14:01:36.974Z,5.03
2023-03-22T14:04:12.347Z,4.35
2023-03-22T14:06:53.889Z,1.92
2023-03-22T14:09:34.743Z,6.85
2023-03-22T14:12:14.727Z,3.53
2023-03-22T14:14:46.986Z,9.50
2023-03-22T14:17:37.883Z,4.00
2023-03-22T14:20:15.353Z,4.97
